sensor_id;sensor_type;location;lat;lon;timestamp;P1;durP1;ratioP1;P2;durP2;ratioP2
6693;SDS011;3384;42.628;23.380;2022-08-01T06:35:42;4.17;;;2.23;;
6693;SDS011;3384;42.628;23.380;2022-08-01T06:40:58;2.60;;;2.30;;
6693;SDS011;3384;42.628;23.380;2022-08-01T06:43:25;2.40;;;2.20;;
6693;SDS011;3384;42.628;23.380;2022-08-01T06:45:52;10.83;;;2.00;;
6693;SDS011;3384;42.628;23.380;2022-08-01T06:48:19;6.20;;;1.90;;
6693;SDS011;3384;42.628;23.380;2022-08-01T06:50:48;2.13;;;1.73;;
6693;SDS011;3384;42.628;23.380;2022-08-01T06:53:32;8.30;;;2.40;;
6693;SDS011;3384;42.628;23.380;2022-08-01T06:55:59;2.23;;;2.13;;
6693;SDS011;3384;42.628;23.380;2022-08-01T06:58:38;4.73;;;2.00;;
6693;SDS011;3384;42.628;23.380;2022-08-01T07:01:05;2.40;;;2.20;;
6693;SDS011;3384;42.628;23.380;2022-08-01T07:03:35;4.33;;;2.23;;
6693;SDS011;3384;42.628;23.380;2022-08-01T07:06:03;2.20;;;2.10;;
6693;SDS011;3384;42.628;23.380;2022-08-01T07:08:30;2.53;;;2.27;;
6693;SDS011;3384;42.628;23.380;2022-08-01T07:10:57;6.80;;;2.03;;
6693;SDS011;3384;42.628;23.380;2022-08-01T07:13:25;2.40;;;2.30;;
6693;SDS011;3384;42.628;23.380;2022-08-01T07:15:53;1.80;;;1.80;;
6693;SDS011;3384;42.628;23.380;2022-08-01T07:18:20;1.93;;;1.83;;
6693;SDS011;3384;42.628;23.380;2022-08-01T07:20:48;2.23;;;2.13;;
6693;SDS011;3384;42.628;23.380;2022-08-01T07:23:17;2.47;;;2.27;;
6693;SDS011;3384;42.628;23.380;2022-08-01T07:25:44;2.40;;;2.20;;
6693;SDS011;3384;42.628;23.380;2022-08-01T07:29:04;2.03;;;1.93;;
6693;SDS011;3384;42.628;23.380;2022-08-01T07:31:34;5.63;;;2.17;;
6693;SDS011;3384;42.628;23.380;2022-08-01T07:34:01;3.40;;;2.70;;
6693;SDS011;3384;42.628;23.380;2022-08-01T07:36:27;4.53;;;2.83;;
6693;SDS011;3384;42.628;23.380;2022-08-01T07:38:59;2.83;;;2.60;;
6693;SDS011;3384;42.628;23.380;2022-08-01T07:41:26;1.97;;;1.80;;
6693;SDS011;3384;42.628;23.380;2022-08-01T07:43:53;1.70;;;1.70;;
6693;SDS011;3384;42.628;23.380;2022-08-01T07:46:20;4.10;;;2.40;;
6693;SDS011;3384;42.628;23.380;2022-08-01T07:48:47;2.10;;;2.00;;
6693;SDS011;3384;42.628;23.380;2022-08-01T07:51:13;2.17;;;2.03;;
6693;SDS011;3384;42.628;23.380;2022-08-01T07:53:40;2.27;;;2.17;;
6693;SDS011;3384;42.628;23.380;2022-08-01T07:56:09;2.50;;;2.30;;
6693;SDS011;3384;42.628;23.380;2022-08-01T07:58:36;12.50;;;2.20;;
6693;SDS011;3384;42.628;23.380;2022-08-01T08:01:03;7.80;;;2.10;;
6693;SDS011;3384;42.628;23.380;2022-08-01T08:03:30;3.00;;;2.00;;
6693;SDS011;3384;42.628;23.380;2022-08-01T08:05:56;1.67;;;1.57;;
6693;SDS011;3384;42.628;23.380;2022-08-01T08:08:23;2.60;;;2.47;;
6693;SDS011;3384;42.628;23.380;2022-08-01T08:10:50;2.60;;;2.50;;
6693;SDS011;3384;42.628;23.380;2022-08-01T08:13:19;2.20;;;2.10;;
6693;SDS011;3384;42.628;23.380;2022-08-01T08:15:47;2.30;;;2.20;;
6693;SDS011;3384;42.628;23.380;2022-08-01T08:18:14;2.40;;;2.20;;
6693;SDS011;3384;42.628;23.380;2022-08-01T08:20:41;1.83;;;1.73;;
6693;SDS011;3384;42.628;23.380;2022-08-01T08:23:09;2.57;;;2.37;;
6693;SDS011;3384;42.628;23.380;2022-08-01T08:25:49;3.77;;;2.47;;
6693;SDS011;3384;42.628;23.380;2022-08-01T08:28:16;9.73;;;2.80;;
6693;SDS011;3384;42.628;23.380;2022-08-01T08:30:44;2.07;;;1.90;;
6693;SDS011;3384;42.628;23.380;2022-08-01T08:33:11;8.03;;;2.50;;
6693;SDS011;3384;42.628;23.380;2022-08-01T08:35:38;3.27;;;3.00;;
6693;SDS011;3384;42.628;23.380;2022-08-01T08:38:06;5.03;;;2.50;;
6693;SDS011;3384;42.628;23.380;2022-08-01T08:40:34;1.90;;;1.80;;
6693;SDS011;3384;42.628;23.380;2022-08-01T08:43:03;2.80;;;2.13;;
6693;SDS011;3384;42.628;23.380;2022-08-01T08:45:32;3.80;;;2.33;;
6693;SDS011;3384;42.628;23.380;2022-08-01T08:48:00;2.27;;;2.07;;
6693;SDS011;3384;42.628;23.380;2022-08-01T08:50:28;4.10;;;2.23;;
6693;SDS011;3384;42.628;23.380;2022-08-01T08:52:55;2.00;;;2.00;;
6693;SDS011;3384;42.628;23.380;2022-08-01T08:55:25;8.37;;;1.80;;
6693;SDS011;3384;42.628;23.380;2022-08-01T08:57:57;5.33;;;2.50;;
6693;SDS011;3384;42.628;23.380;2022-08-01T09:00:25;2.17;;;2.07;;
6693;SDS011;3384;42.628;23.380;2022-08-01T09:02:52;6.00;;;2.07;;
6693;SDS011;3384;42.628;23.380;2022-08-01T09:05:23;2.80;;;2.60;;
6693;SDS011;3384;42.628;23.380;2022-08-01T09:07:52;1.80;;;1.70;;
6693;SDS011;3384;42.628;23.380;2022-08-01T09:10:20;5.70;;;2.40;;
6693;SDS011;3384;42.628;23.380;2022-08-01T09:15:37;2.10;;;2.00;;
6693;SDS011;3384;42.628;23.380;2022-08-01T09:18:05;2.00;;;1.90;;
6693;SDS011;3384;42.628;23.380;2022-08-01T09:20:34;3.37;;;2.07;;
6693;SDS011;3384;42.628;23.380;2022-08-01T09:23:06;1.87;;;1.73;;
6693;SDS011;3384;42.628;23.380;2022-08-01T09:26:00;5.00;;;1.73;;
6693;SDS011;3384;42.628;23.380;2022-08-01T09:28:28;1.80;;;1.63;;
6693;SDS011;3384;42.628;23.380;2022-08-01T09:30:56;1.77;;;1.67;;
6693;SDS011;3384;42.628;23.380;2022-08-01T09:33:23;2.00;;;1.90;;
6693;SDS011;3384;42.628;23.380;2022-08-01T09:35:55;1.60;;;1.60;;
6693;SDS011;3384;42.628;23.380;2022-08-01T09:38:24;2.93;;;1.80;;
6693;SDS011;3384;42.628;23.380;2022-08-01T09:40:53;2.53;;;2.33;;
6693;SDS011;3384;42.628;23.380;2022-08-01T09:43:22;2.17;;;1.97;;
6693;SDS011;3384;42.628;23.380;2022-08-01T09:45:51;2.60;;;1.70;;
6693;SDS011;3384;42.628;23.380;2022-08-01T09:48:19;2.27;;;2.17;;
6693;SDS011;3384;42.628;23.380;2022-08-01T09:50:47;5.20;;;2.07;;
6693;SDS011;3384;42.628;23.380;2022-08-01T09:53:16;2.90;;;2.10;;
6693;SDS011;3384;42.628;23.380;2022-08-01T09:55:43;3.27;;;1.90;;
6693;SDS011;3384;42.628;23.380;2022-08-01T09:58:10;2.07;;;1.97;;
6693;SDS011;3384;42.628;23.380;2022-08-01T10:00:38;2.27;;;2.17;;
6693;SDS011;3384;42.628;23.380;2022-08-01T10:05:49;3.00;;;2.10;;
6693;SDS011;3384;42.628;23.380;2022-08-01T10:08:18;1.70;;;1.70;;
6693;SDS011;3384;42.628;23.380;2022-08-01T10:13:33;2.17;;;2.07;;
6693;SDS011;3384;42.628;23.380;2022-08-01T10:16:01;2.30;;;2.10;;
6693;SDS011;3384;42.628;23.380;2022-08-01T10:18:28;1.73;;;1.73;;
6693;SDS011;3384;42.628;23.380;2022-08-01T10:20:58;1.80;;;1.70;;
6693;SDS011;3384;42.628;23.380;2022-08-01T10:23:27;2.57;;;1.90;;
6693;SDS011;3384;42.628;23.380;2022-08-01T10:26:00;14.43;;;2.40;;
6693;SDS011;3384;42.628;23.380;2022-08-01T10:28:28;2.50;;;2.40;;
6693;SDS011;3384;42.628;23.380;2022-08-01T10:30:57;4.43;;;2.47;;
6693;SDS011;3384;42.628;23.380;2022-08-01T10:33:25;6.47;;;2.30;;
6693;SDS011;3384;42.628;23.380;2022-08-01T10:35:51;4.20;;;2.00;;
6693;SDS011;3384;42.628;23.380;2022-08-01T10:38:18;2.40;;;2.30;;
6693;SDS011;3384;42.628;23.380;2022-08-01T10:40:47;2.70;;;2.03;;
6693;SDS011;3384;42.628;23.380;2022-08-01T10:43:14;2.00;;;2.00;;
6693;SDS011;3384;42.628;23.380;2022-08-01T10:45:43;2.00;;;1.90;;
6693;SDS011;3384;42.628;23.380;2022-08-01T10:48:11;1.80;;;1.80;;
6693;SDS011;3384;42.628;23.380;2022-08-01T10:50:44;10.50;;;1.63;;
6693;SDS011;3384;42.628;23.380;2022-08-01T10:53:16;2.60;;;1.67;;
6693;SDS011;3384;42.628;23.380;2022-08-01T10:55:50;3.70;;;2.10;;
6693;SDS011;3384;42.628;23.380;2022-08-01T10:58:22;5.70;;;2.07;;
6693;SDS011;3384;42.628;23.380;2022-08-01T11:04:00;2.60;;;2.10;;
6693;SDS011;3384;42.628;23.380;2022-08-01T11:09:31;2.70;;;2.60;;
6693;SDS011;3384;42.628;23.380;2022-08-01T11:12:15;2.67;;;1.70;;
6693;SDS011;3384;42.628;23.380;2022-08-01T11:18:29;2.10;;;2.07;;
6693;SDS011;3384;42.628;23.380;2022-08-01T11:20:57;2.10;;;2.10;;
6693;SDS011;3384;42.628;23.380;2022-08-01T11:23:26;2.27;;;2.07;;
6693;SDS011;3384;42.628;23.380;2022-08-01T11:26:10;2.73;;;2.53;;
6693;SDS011;3384;42.628;23.380;2022-08-01T11:28:44;4.40;;;2.20;;
6693;SDS011;3384;42.628;23.380;2022-08-01T11:31:32;1.80;;;1.70;;
6693;SDS011;3384;42.628;23.380;2022-08-01T11:34:00;1.90;;;1.80;;
6693;SDS011;3384;42.628;23.380;2022-08-01T11:36:28;2.10;;;2.00;;
6693;SDS011;3384;42.628;23.380;2022-08-01T11:39:12;4.60;;;1.93;;
6693;SDS011;3384;42.628;23.380;2022-08-01T11:41:43;2.23;;;2.13;;
6693;SDS011;3384;42.628;23.380;2022-08-01T11:44:17;2.20;;;1.50;;
6693;SDS011;3384;42.628;23.380;2022-08-01T11:46:59;2.17;;;2.07;;
6693;SDS011;3384;42.628;23.380;2022-08-01T11:49:34;1.70;;;1.70;;
6693;SDS011;3384;42.628;23.380;2022-08-01T11:52:11;2.10;;;2.00;;
6693;SDS011;3384;42.628;23.380;2022-08-01T11:54:41;1.93;;;1.83;;
6693;SDS011;3384;42.628;23.380;2022-08-01T11:57:10;6.20;;;2.20;;
6693;SDS011;3384;42.628;23.380;2022-08-01T11:59:40;2.20;;;2.10;;
6693;SDS011;3384;42.628;23.380;2022-08-01T12:02:20;5.37;;;2.00;;
6693;SDS011;3384;42.628;23.380;2022-08-01T12:04:50;1.97;;;1.80;;
6693;SDS011;3384;42.628;23.380;2022-08-01T12:07:19;1.47;;;1.47;;
6693;SDS011;3384;42.628;23.380;2022-08-01T12:09:46;7.10;;;2.10;;
6693;SDS011;3384;42.628;23.380;2022-08-01T12:12:17;5.73;;;1.90;;
6693;SDS011;3384;42.628;23.380;2022-08-01T12:14:46;2.13;;;2.00;;
6693;SDS011;3384;42.628;23.380;2022-08-01T12:17:21;2.87;;;2.30;;
6693;SDS011;3384;42.628;23.380;2022-08-01T12:19:54;6.33;;;1.57;;
6693;SDS011;3384;42.628;23.380;2022-08-01T12:22:22;2.43;;;2.23;;
6693;SDS011;3384;42.628;23.380;2022-08-01T12:24:50;2.37;;;2.27;;
6693;SDS011;3384;42.628;23.380;2022-08-01T12:27:24;2.40;;;2.20;;
6693;SDS011;3384;42.628;23.380;2022-08-01T12:29:54;4.30;;;2.03;;
6693;SDS011;3384;42.628;23.380;2022-08-01T12:32:22;2.70;;;2.40;;
6693;SDS011;3384;42.628;23.380;2022-08-01T12:34:52;1.83;;;1.73;;
6693;SDS011;3384;42.628;23.380;2022-08-01T12:37:20;3.00;;;2.73;;
6693;SDS011;3384;42.628;23.380;2022-08-01T12:39:47;2.23;;;2.13;;
6693;SDS011;3384;42.628;23.380;2022-08-01T12:42:14;2.60;;;2.50;;
6693;SDS011;3384;42.628;23.380;2022-08-01T12:44:43;2.20;;;2.00;;
6693;SDS011;3384;42.628;23.380;2022-08-01T12:47:15;2.43;;;2.33;;
6693;SDS011;3384;42.628;23.380;2022-08-01T12:49:43;2.60;;;2.40;;
6693;SDS011;3384;42.628;23.380;2022-08-01T12:52:11;3.20;;;3.10;;
6693;SDS011;3384;42.628;23.380;2022-08-01T12:57:35;4.00;;;2.53;;
6693;SDS011;3384;42.628;23.380;2022-08-01T13:00:07;2.40;;;2.30;;
6693;SDS011;3384;42.628;23.380;2022-08-01T13:02:38;2.47;;;2.37;;
6693;SDS011;3384;42.628;23.380;2022-08-01T13:05:06;2.37;;;2.27;;
6693;SDS011;3384;42.628;23.380;2022-08-01T13:07:35;2.67;;;2.57;;
6693;SDS011;3384;42.628;23.380;2022-08-01T13:10:03;2.17;;;2.17;;
6693;SDS011;3384;42.628;23.380;2022-08-01T13:12:31;2.23;;;2.13;;
6693;SDS011;3384;42.628;23.380;2022-08-01T13:14:57;4.27;;;2.27;;
6693;SDS011;3384;42.628;23.380;2022-08-01T13:17:31;1.97;;;1.87;;
6693;SDS011;3384;42.628;23.380;2022-08-01T13:20:07;1.70;;;1.70;;
6693;SDS011;3384;42.628;23.380;2022-08-01T13:22:36;1.80;;;1.80;;
6693;SDS011;3384;42.628;23.380;2022-08-01T13:25:11;2.13;;;2.07;;
6693;SDS011;3384;42.628;23.380;2022-08-01T13:27:39;5.30;;;2.13;;
6693;SDS011;3384;42.628;23.380;2022-08-01T13:30:10;2.23;;;2.13;;
6693;SDS011;3384;42.628;23.380;2022-08-01T13:32:39;2.10;;;2.00;;
6693;SDS011;3384;42.628;23.380;2022-08-01T13:35:10;1.90;;;1.90;;
6693;SDS011;3384;42.628;23.380;2022-08-01T13:37:39;2.60;;;1.97;;
6693;SDS011;3384;42.628;23.380;2022-08-01T13:40:09;2.33;;;2.23;;
6693;SDS011;3384;42.628;23.380;2022-08-01T13:42:37;2.43;;;2.13;;
6693;SDS011;3384;42.628;23.380;2022-08-01T13:45:05;6.93;;;2.30;;
6693;SDS011;3384;42.628;23.380;2022-08-01T13:47:36;2.43;;;2.33;;
6693;SDS011;3384;42.628;23.380;2022-08-01T13:50:04;1.63;;;1.63;;
6693;SDS011;3384;42.628;23.380;2022-08-01T13:52:38;2.80;;;2.40;;
6693;SDS011;3384;42.628;23.380;2022-08-01T13:55:05;2.53;;;2.43;;
6693;SDS011;3384;42.628;23.380;2022-08-01T13:57:32;2.00;;;2.00;;
6693;SDS011;3384;42.628;23.380;2022-08-01T13:59:59;2.13;;;2.07;;
6693;SDS011;3384;42.628;23.380;2022-08-01T14:02:26;2.33;;;2.23;;
6693;SDS011;3384;42.628;23.380;2022-08-01T14:04:54;5.70;;;2.47;;
6693;SDS011;3384;42.628;23.380;2022-08-01T14:07:23;8.10;;;2.30;;
6693;SDS011;3384;42.628;23.380;2022-08-01T14:09:52;2.40;;;2.30;;
6693;SDS011;3384;42.628;23.380;2022-08-01T14:12:19;2.80;;;2.70;;
6693;SDS011;3384;42.628;23.380;2022-08-01T14:14:46;1.97;;;1.97;;
6693;SDS011;3384;42.628;23.380;2022-08-01T14:17:13;2.20;;;2.10;;
6693;SDS011;3384;42.628;23.380;2022-08-01T14:19:40;2.07;;;1.97;;
6693;SDS011;3384;42.628;23.380;2022-08-01T14:22:07;4.93;;;2.10;;
6693;SDS011;3384;42.628;23.380;2022-08-01T14:24:33;2.63;;;2.53;;
6693;SDS011;3384;42.628;23.380;2022-08-01T14:27:02;1.90;;;1.80;;
6693;SDS011;3384;42.628;23.380;2022-08-01T14:29:30;1.73;;;1.73;;
6693;SDS011;3384;42.628;23.380;2022-08-01T14:31:57;2.30;;;2.10;;
6693;SDS011;3384;42.628;23.380;2022-08-01T14:34:24;3.00;;;1.93;;
6693;SDS011;3384;42.628;23.380;2022-08-01T14:36:51;2.27;;;2.17;;
6693;SDS011;3384;42.628;23.380;2022-08-01T14:39:19;2.00;;;1.90;;
6693;SDS011;3384;42.628;23.380;2022-08-01T14:41:46;8.10;;;2.63;;
6693;SDS011;3384;42.628;23.380;2022-08-01T14:44:14;2.50;;;2.40;;
6693;SDS011;3384;42.628;23.380;2022-08-01T14:46:41;2.07;;;2.00;;
6693;SDS011;3384;42.628;23.380;2022-08-01T14:49:09;1.90;;;1.80;;
6693;SDS011;3384;42.628;23.380;2022-08-01T14:51:36;5.87;;;2.43;;
6693;SDS011;3384;42.628;23.380;2022-08-01T14:54:04;1.80;;;1.70;;
6693;SDS011;3384;42.628;23.380;2022-08-01T14:56:31;7.07;;;1.90;;
6693;SDS011;3384;42.628;23.380;2022-08-01T14:58:58;2.33;;;2.07;;
6693;SDS011;3384;42.628;23.380;2022-08-01T15:01:27;2.40;;;2.30;;
6693;SDS011;3384;42.628;23.380;2022-08-01T15:03:54;2.00;;;1.90;;
6693;SDS011;3384;42.628;23.380;2022-08-01T15:06:21;4.30;;;2.10;;
6693;SDS011;3384;42.628;23.380;2022-08-01T15:08:49;6.90;;;2.83;;
6693;SDS011;3384;42.628;23.380;2022-08-01T15:11:15;1.83;;;1.83;;
6693;SDS011;3384;42.628;23.380;2022-08-01T15:13:42;2.30;;;2.30;;
6693;SDS011;3384;42.628;23.380;2022-08-01T15:16:09;4.40;;;2.47;;
6693;SDS011;3384;42.628;23.380;2022-08-01T15:18:38;2.13;;;1.67;;
6693;SDS011;3384;42.628;23.380;2022-08-01T15:21:06;1.90;;;1.67;;
6693;SDS011;3384;42.628;23.380;2022-08-01T15:23:33;1.90;;;1.80;;
6693;SDS011;3384;42.628;23.380;2022-08-01T15:26:01;1.87;;;1.70;;
6693;SDS011;3384;42.628;23.380;2022-08-01T15:28:28;3.40;;;1.93;;
6693;SDS011;3384;42.628;23.380;2022-08-01T15:30:55;1.90;;;1.80;;
6693;SDS011;3384;42.628;23.380;2022-08-01T15:33:22;1.50;;;1.40;;
6693;SDS011;3384;42.628;23.380;2022-08-01T15:35:51;2.10;;;2.03;;
6693;SDS011;3384;42.628;23.380;2022-08-01T15:38:22;1.90;;;1.80;;
6693;SDS011;3384;42.628;23.380;2022-08-01T15:40:49;1.23;;;1.23;;
6693;SDS011;3384;42.628;23.380;2022-08-01T15:43:16;1.83;;;1.73;;
6693;SDS011;3384;42.628;23.380;2022-08-01T15:45:43;2.17;;;1.43;;
6693;SDS011;3384;42.628;23.380;2022-08-01T15:48:11;3.63;;;1.83;;
6693;SDS011;3384;42.628;23.380;2022-08-01T15:50:38;2.27;;;1.40;;
6693;SDS011;3384;42.628;23.380;2022-08-01T15:53:06;3.90;;;1.80;;
6693;SDS011;3384;42.628;23.380;2022-08-01T15:55:34;1.57;;;1.57;;
6693;SDS011;3384;42.628;23.380;2022-08-01T15:58:01;1.40;;;1.40;;
6693;SDS011;3384;42.628;23.380;2022-08-01T16:00:29;5.73;;;2.50;;
6693;SDS011;3384;42.628;23.380;2022-08-01T16:03:05;5.73;;;1.63;;
6693;SDS011;3384;42.628;23.380;2022-08-01T16:05:34;2.27;;;1.43;;
6693;SDS011;3384;42.628;23.380;2022-08-01T16:08:01;2.20;;;1.60;;
6693;SDS011;3384;42.628;23.380;2022-08-01T16:10:31;1.67;;;1.57;;
6693;SDS011;3384;42.628;23.380;2022-08-01T16:13:00;2.10;;;2.00;;
6693;SDS011;3384;42.628;23.380;2022-08-01T16:15:27;1.20;;;1.20;;
6693;SDS011;3384;42.628;23.380;2022-08-01T16:17:54;2.37;;;1.40;;
6693;SDS011;3384;42.628;23.380;2022-08-01T16:20:24;0.93;;;0.93;;
6693;SDS011;3384;42.628;23.380;2022-08-01T16:22:52;1.97;;;1.63;;
6693;SDS011;3384;42.628;23.380;2022-08-01T16:25:19;2.40;;;1.47;;
6693;SDS011;3384;42.628;23.380;2022-08-01T16:27:47;1.27;;;1.27;;
6693;SDS011;3384;42.628;23.380;2022-08-01T16:30:14;2.30;;;2.20;;
6693;SDS011;3384;42.628;23.380;2022-08-01T16:32:43;1.83;;;1.73;;
6693;SDS011;3384;42.628;23.380;2022-08-01T16:35:10;1.53;;;1.43;;
6693;SDS011;3384;42.628;23.380;2022-08-01T16:37:36;1.50;;;1.50;;
6693;SDS011;3384;42.628;23.380;2022-08-01T16:40:04;1.57;;;1.57;;
6693;SDS011;3384;42.628;23.380;2022-08-01T16:42:32;1.00;;;1.00;;
6693;SDS011;3384;42.628;23.380;2022-08-01T16:45:00;1.57;;;1.30;;
6693;SDS011;3384;42.628;23.380;2022-08-01T16:47:27;1.87;;;1.77;;
6693;SDS011;3384;42.628;23.380;2022-08-01T16:49:54;1.50;;;1.40;;
6693;SDS011;3384;42.628;23.380;2022-08-01T16:52:21;1.53;;;1.20;;
6693;SDS011;3384;42.628;23.380;2022-08-01T16:54:48;3.50;;;1.73;;
6693;SDS011;3384;42.628;23.380;2022-08-01T16:57:15;1.27;;;1.17;;
6693;SDS011;3384;42.628;23.380;2022-08-01T16:59:44;1.60;;;1.50;;
6693;SDS011;3384;42.628;23.380;2022-08-01T17:02:26;5.90;;;1.20;;
6693;SDS011;3384;42.628;23.380;2022-08-01T17:04:53;1.30;;;1.20;;
6693;SDS011;3384;42.628;23.380;2022-08-01T17:07:20;2.80;;;1.07;;
6693;SDS011;3384;42.628;23.380;2022-08-01T17:09:48;1.10;;;1.00;;
6693;SDS011;3384;42.628;23.380;2022-08-01T17:12:15;2.93;;;1.53;;
6693;SDS011;3384;42.628;23.380;2022-08-01T17:14:42;1.20;;;1.03;;
6693;SDS011;3384;42.628;23.380;2022-08-01T17:17:09;1.30;;;1.30;;
6693;SDS011;3384;42.628;23.380;2022-08-01T17:19:38;1.83;;;1.73;;
6693;SDS011;3384;42.628;23.380;2022-08-01T17:22:05;1.20;;;1.20;;
6693;SDS011;3384;42.628;23.380;2022-08-01T17:24:32;1.60;;;1.10;;
6693;SDS011;3384;42.628;23.380;2022-08-01T17:26:59;1.23;;;1.23;;
6693;SDS011;3384;42.628;23.380;2022-08-01T17:29:26;5.53;;;1.00;;
6693;SDS011;3384;42.628;23.380;2022-08-01T17:31:53;2.17;;;1.97;;
6693;SDS011;3384;42.628;23.380;2022-08-01T17:34:20;3.90;;;1.60;;
6693;SDS011;3384;42.628;23.380;2022-08-01T17:36:48;1.27;;;1.27;;
6693;SDS011;3384;42.628;23.380;2022-08-01T17:39:16;1.67;;;1.57;;
6693;SDS011;3384;42.628;23.380;2022-08-01T17:41:43;1.60;;;1.50;;
6693;SDS011;3384;42.628;23.380;2022-08-01T17:44:10;1.10;;;1.10;;
6693;SDS011;3384;42.628;23.380;2022-08-01T17:46:37;2.50;;;1.60;;
6693;SDS011;3384;42.628;23.380;2022-08-01T17:49:04;1.90;;;1.80;;
6693;SDS011;3384;42.628;23.380;2022-08-01T17:51:31;3.17;;;1.57;;
6693;SDS011;3384;42.628;23.380;2022-08-01T17:54:02;2.03;;;1.93;;
6693;SDS011;3384;42.628;23.380;2022-08-01T17:56:29;2.10;;;1.30;;
6693;SDS011;3384;42.628;23.380;2022-08-01T17:58:56;1.80;;;1.70;;
6693;SDS011;3384;42.628;23.380;2022-08-01T18:01:23;2.13;;;2.03;;
6693;SDS011;3384;42.628;23.380;2022-08-01T18:03:50;2.63;;;2.40;;
6693;SDS011;3384;42.628;23.380;2022-08-01T18:06:18;2.30;;;1.80;;
6693;SDS011;3384;42.628;23.380;2022-08-01T18:08:46;1.63;;;1.53;;
6693;SDS011;3384;42.628;23.380;2022-08-01T18:11:25;3.50;;;1.60;;
6693;SDS011;3384;42.628;23.380;2022-08-01T18:13:52;3.53;;;1.50;;
6693;SDS011;3384;42.628;23.380;2022-08-01T18:16:19;1.77;;;1.47;;
6693;SDS011;3384;42.628;23.380;2022-08-01T18:18:46;1.83;;;1.73;;
6693;SDS011;3384;42.628;23.380;2022-08-01T18:21:17;2.13;;;1.30;;
6693;SDS011;3384;42.628;23.380;2022-08-01T18:23:44;1.47;;;1.27;;
6693;SDS011;3384;42.628;23.380;2022-08-01T18:26:10;3.80;;;1.60;;
6693;SDS011;3384;42.628;23.380;2022-08-01T18:28:39;1.33;;;1.33;;
6693;SDS011;3384;42.628;23.380;2022-08-01T18:31:07;1.83;;;1.67;;
6693;SDS011;3384;42.628;23.380;2022-08-01T18:33:35;2.07;;;1.97;;
6693;SDS011;3384;42.628;23.380;2022-08-01T18:36:03;2.20;;;1.77;;
6693;SDS011;3384;42.628;23.380;2022-08-01T18:38:35;1.63;;;1.53;;
6693;SDS011;3384;42.628;23.380;2022-08-01T18:41:02;1.57;;;1.53;;
6693;SDS011;3384;42.628;23.380;2022-08-01T18:43:29;2.40;;;1.73;;
6693;SDS011;3384;42.628;23.380;2022-08-01T18:45:59;1.60;;;1.50;;
6693;SDS011;3384;42.628;23.380;2022-08-01T18:48:27;1.70;;;1.60;;
6693;SDS011;3384;42.628;23.380;2022-08-01T18:50:54;1.80;;;1.70;;
6693;SDS011;3384;42.628;23.380;2022-08-01T18:53:24;1.50;;;1.40;;
6693;SDS011;3384;42.628;23.380;2022-08-01T18:55:51;1.43;;;1.43;;
6693;SDS011;3384;42.628;23.380;2022-08-01T18:58:19;4.10;;;1.43;;
6693;SDS011;3384;42.628;23.380;2022-08-01T19:00:47;3.23;;;1.83;;
6693;SDS011;3384;42.628;23.380;2022-08-01T19:03:16;1.60;;;1.50;;
6693;SDS011;3384;42.628;23.380;2022-08-01T19:05:44;1.70;;;1.70;;
6693;SDS011;3384;42.628;23.380;2022-08-01T19:08:12;7.67;;;2.37;;
6693;SDS011;3384;42.628;23.380;2022-08-01T19:10:40;2.60;;;2.50;;
6693;SDS011;3384;42.628;23.380;2022-08-01T19:13:07;1.63;;;1.53;;
6693;SDS011;3384;42.628;23.380;2022-08-01T19:15:35;2.03;;;1.93;;
6693;SDS011;3384;42.628;23.380;2022-08-01T19:18:02;1.80;;;1.70;;
6693;SDS011;3384;42.628;23.380;2022-08-01T19:20:32;4.60;;;1.67;;
6693;SDS011;3384;42.628;23.380;2022-08-01T19:23:01;2.50;;;1.80;;
6693;SDS011;3384;42.628;23.380;2022-08-01T19:25:49;2.87;;;2.10;;
6693;SDS011;3384;42.628;23.380;2022-08-01T19:28:26;1.70;;;1.70;;
6693;SDS011;3384;42.628;23.380;2022-08-01T19:30:53;3.67;;;2.73;;
6693;SDS011;3384;42.628;23.380;2022-08-01T19:33:25;2.93;;;2.40;;
6693;SDS011;3384;42.628;23.380;2022-08-01T19:35:57;2.30;;;2.20;;
6693;SDS011;3384;42.628;23.380;2022-08-01T19:38:25;1.43;;;1.43;;
6693;SDS011;3384;42.628;23.380;2022-08-01T19:41:10;4.50;;;1.50;;
6693;SDS011;3384;42.628;23.380;2022-08-01T19:53:27;1.73;;;1.63;;
6693;SDS011;3384;42.628;23.380;2022-08-01T19:55:57;1.83;;;1.73;;
6693;SDS011;3384;42.628;23.380;2022-08-01T19:58:26;2.43;;;1.90;;
6693;SDS011;3384;42.628;23.380;2022-08-01T20:01:03;5.60;;;2.60;;
6693;SDS011;3384;42.628;23.380;2022-08-01T20:03:32;2.30;;;2.10;;
6693;SDS011;3384;42.628;23.380;2022-08-01T20:06:03;2.33;;;2.00;;
6693;SDS011;3384;42.628;23.380;2022-08-01T20:08:31;1.73;;;1.63;;
6693;SDS011;3384;42.628;23.380;2022-08-01T20:11:00;1.20;;;1.10;;
6693;SDS011;3384;42.628;23.380;2022-08-01T20:13:28;1.53;;;1.30;;
6693;SDS011;3384;42.628;23.380;2022-08-01T20:15:55;2.27;;;2.17;;
6693;SDS011;3384;42.628;23.380;2022-08-01T20:18:23;1.50;;;1.40;;
6693;SDS011;3384;42.628;23.380;2022-08-01T20:20:51;2.40;;;1.17;;
6693;SDS011;3384;42.628;23.380;2022-08-01T20:23:21;1.33;;;1.33;;
6693;SDS011;3384;42.628;23.380;2022-08-01T20:25:52;1.50;;;1.40;;
6693;SDS011;3384;42.628;23.380;2022-08-01T20:28:24;1.63;;;1.53;;
6693;SDS011;3384;42.628;23.380;2022-08-01T20:30:53;3.63;;;1.90;;
6693;SDS011;3384;42.628;23.380;2022-08-01T20:33:22;2.13;;;1.80;;
6693;SDS011;3384;42.628;23.380;2022-08-01T20:35:49;1.67;;;1.57;;
6693;SDS011;3384;42.628;23.380;2022-08-01T20:38:27;16.00;;;2.03;;
6693;SDS011;3384;42.628;23.380;2022-08-01T20:40:55;3.20;;;1.50;;
6693;SDS011;3384;42.628;23.380;2022-08-01T20:43:22;1.60;;;1.50;;
6693;SDS011;3384;42.628;23.380;2022-08-01T20:45:51;4.00;;;2.10;;
6693;SDS011;3384;42.628;23.380;2022-08-01T20:48:18;2.93;;;1.30;;
6693;SDS011;3384;42.628;23.380;2022-08-01T20:50:45;2.00;;;1.90;;
6693;SDS011;3384;42.628;23.380;2022-08-01T20:53:33;1.07;;;1.07;;
6693;SDS011;3384;42.628;23.380;2022-08-01T20:56:06;1.53;;;1.53;;
6693;SDS011;3384;42.628;23.380;2022-08-01T20:58:53;2.73;;;1.83;;
6693;SDS011;3384;42.628;23.380;2022-08-01T21:01:28;2.00;;;1.90;;
6693;SDS011;3384;42.628;23.380;2022-08-01T21:04:00;5.20;;;1.10;;
6693;SDS011;3384;42.628;23.380;2022-08-01T21:06:41;1.70;;;1.70;;
6693;SDS011;3384;42.628;23.380;2022-08-01T21:09:13;1.07;;;1.07;;
6693;SDS011;3384;42.628;23.380;2022-08-01T21:11:47;3.23;;;1.70;;
6693;SDS011;3384;42.628;23.380;2022-08-01T21:14:18;1.43;;;1.00;;
6693;SDS011;3384;42.628;23.380;2022-08-01T21:16:48;1.40;;;1.40;;
6693;SDS011;3384;42.628;23.380;2022-08-01T21:19:25;1.10;;;0.90;;
6693;SDS011;3384;42.628;23.380;2022-08-01T21:21:55;1.37;;;1.37;;
6693;SDS011;3384;42.628;23.380;2022-08-01T21:24:33;1.37;;;1.20;;
6693;SDS011;3384;42.628;23.380;2022-08-01T21:27:09;2.40;;;1.40;;
6693;SDS011;3384;42.628;23.380;2022-08-01T21:29:39;1.33;;;1.20;;
6693;SDS011;3384;42.628;23.380;2022-08-01T21:32:06;1.17;;;1.17;;
6693;SDS011;3384;42.628;23.380;2022-08-01T21:34:39;5.37;;;0.97;;
6693;SDS011;3384;42.628;23.380;2022-08-01T21:37:10;1.40;;;1.30;;
6693;SDS011;3384;42.628;23.380;2022-08-01T21:39:42;8.03;;;1.00;;
6693;SDS011;3384;42.628;23.380;2022-08-01T21:42:10;1.10;;;1.00;;
6693;SDS011;3384;42.628;23.380;2022-08-01T21:44:38;1.00;;;1.00;;
6693;SDS011;3384;42.628;23.380;2022-08-01T21:47:08;1.17;;;1.17;;
6693;SDS011;3384;42.628;23.380;2022-08-01T21:49:36;3.33;;;1.30;;
6693;SDS011;3384;42.628;23.380;2022-08-01T21:52:03;2.90;;;1.07;;
6693;SDS011;3384;42.628;23.380;2022-08-01T21:54:34;1.00;;;1.00;;
6693;SDS011;3384;42.628;23.380;2022-08-01T21:57:09;0.80;;;0.80;;
6693;SDS011;3384;42.628;23.380;2022-08-01T21:59:45;2.83;;;1.13;;
6693;SDS011;3384;42.628;23.380;2022-08-01T22:02:21;1.23;;;1.23;;
6693;SDS011;3384;42.628;23.380;2022-08-01T22:04:54;0.90;;;0.90;;
6693;SDS011;3384;42.628;23.380;2022-08-01T22:07:28;1.00;;;1.00;;
6693;SDS011;3384;42.628;23.380;2022-08-01T22:09:58;0.80;;;0.80;;
6693;SDS011;3384;42.628;23.380;2022-08-01T22:12:30;0.60;;;0.57;;
6693;SDS011;3384;42.628;23.380;2022-08-01T22:14:59;0.70;;;0.67;;
6693;SDS011;3384;42.628;23.380;2022-08-01T22:17:28;1.63;;;0.90;;
6693;SDS011;3384;42.628;23.380;2022-08-01T22:19:55;3.23;;;0.90;;
6693;SDS011;3384;42.628;23.380;2022-08-01T22:22:22;0.90;;;0.90;;